PWSweather.com
Personal Weather Stations
Station Observations
KCOGRAND2
Redlands, Southcamp Road & Dakota Circle, Grand Junction, CO 81507

Redlands, Southcamp Road & Dakota CircleGrand Junction, CO 81507

Lat: 39.055, Lon: -108.637

Elevation: 4870

Station Type: RadioShack WX200

High Low Average
Temperature 36.1°F2.3°C 11.8°F-11.2°C 22.2°F-5.4°C
Dew Point 16.9°F-8.4°C 8.2°F-13.2°C 12.2°F-11.0°C
Winds 6.0 mph 9.7 kmh Calm Calm 1.0 mph SSE1.6 kmh SSE
Wind Gusts 10.1 mph16.3 kmh -- 3.0 mph4.8 kmh
Humidity 87% 37% 62%
Pressure 25.31 in857.1 mb 25.19 in853.0 mb -
Precipitation 0.00 in0.0 mm - -
Hour Temp Dew Point Humidity Winds Wind Gusts Pressure Precip Precip Rate Daily Precip Total
12:00 AM 17.6°F-8.0°C 12.0°F-11.1°C 78% Calm Calm -- 25.31 in857.1 mb 0.00 in0.0 mm 0.00 in/hr0.0 mm/hr 0.00 in0.0 mm
12:05 AM 18.0°F-7.8°C 12.2°F-11.0°C 78% Calm Calm -- 25.31 in857.1 mb 0.00 in0.0 mm 0.00 in/hr0.0 mm/hr 0.00 in0.0 mm
12:10 AM 17.2°F-8.2°C 11.7°F-11.3°C 78% Calm Calm -- 25.31 in857.1 mb 0.00 in0.0 mm 0.00 in/hr0.0 mm/hr 0.00 in0.0 mm
12:15 AM 16.9°F-8.4°C 10.9°F-11.7°C 77% Calm Calm -- 25.31 in857.1 mb 0.00 in0.0 mm 0.00 in/hr0.0 mm/hr 0.00 in0.0 mm
12:20 AM 16.7°F-8.5°C 11.1°F-11.6°C 78% Calm Calm -- 25.31 in857.1 mb 0.00 in0.0 mm 0.00 in/hr0.0 mm/hr 0.00 in0.0 mm
12:25 AM 16.5°F-8.6°C 10.9°F-11.7°C 78% Calm Calm -- 25.31 in857.1 mb 0.00 in0.0 mm 0.00 in/hr0.0 mm/hr 0.00 in0.0 mm
12:30 AM 17.2°F-8.2°C 11.7°F-11.3°C 78% Calm Calm -- 25.31 in857.1 mb 0.00 in0.0 mm 0.00 in/hr0.0 mm/hr 0.00 in0.0 mm
12:35 AM 17.4°F-8.1°C 12.0°F-11.1°C 79% Calm Calm -- 25.31 in857.1 mb 0.00 in0.0 mm 0.00 in/hr0.0 mm/hr 0.00 in0.0 mm
12:40 AM 18.1°F-7.7°C 12.7°F-10.7°C 79% Calm Calm -- 25.31 in857.1 mb 0.00 in0.0 mm 0.00 in/hr0.0 mm/hr 0.00 in0.0 mm
12:45 AM 18.9°F-7.3°C 13.1°F-10.5°C 78% Calm Calm 2.7 mph4.3 kmh 25.31 in857.1 mb 0.00 in0.0 mm 0.00 in/hr0.0 mm/hr 0.00 in0.0 mm
12:50 AM 19.0°F-7.2°C 13.1°F-10.5°C 77% Calm Calm -- 25.31 in857.1 mb 0.00 in0.0 mm 0.00 in/hr0.0 mm/hr 0.00 in0.0 mm
12:55 AM 18.0°F-7.8°C 12.0°F-11.1°C 77% 1.0 mph W1.6 kmh W 4.5 mph7.2 kmh 25.31 in857.1 mb 0.00 in0.0 mm 0.00 in/hr0.0 mm/hr 0.00 in0.0 mm
01:00 AM 18.3°F-7.6°C 12.4°F-10.9°C 77% 1.0 mph WSW1.6 kmh WSW 3.1 mph5.0 kmh 25.31 in857.1 mb 0.00 in0.0 mm 0.00 in/hr0.0 mm/hr 0.00 in0.0 mm
01:05 AM 19.4°F-7.0°C 13.5°F-10.3°C 77% Calm Calm -- 25.31 in857.1 mb 0.00 in0.0 mm 0.00 in/hr0.0 mm/hr 0.00 in0.0 mm
01:10 AM 18.9°F-7.3°C 12.9°F-10.6°C 77% Calm Calm -- 25.31 in857.1 mb 0.00 in0.0 mm 0.00 in/hr0.0 mm/hr 0.00 in0.0 mm
01:15 AM 18.5°F-7.5°C 12.2°F-11.0°C 76% Calm Calm -- 25.31 in857.1 mb 0.00 in0.0 mm 0.00 in/hr0.0 mm/hr 0.00 in0.0 mm
01:20 AM 18.5°F-7.5°C 12.2°F-11.0°C 76% Calm Calm -- 25.31 in857.1 mb 0.00 in0.0 mm 0.00 in/hr0.0 mm/hr 0.00 in0.0 mm
01:25 AM 18.1°F-7.7°C 11.8°F-11.2°C 76% Calm Calm 4.0 mph6.4 kmh 25.31 in857.1 mb 0.00 in0.0 mm 0.00 in/hr0.0 mm/hr 0.00 in0.0 mm
01:30 AM 18.0°F-7.8°C 11.5°F-11.4°C 75% Calm Calm -- 25.31 in857.1 mb 0.00 in0.0 mm 0.00 in/hr0.0 mm/hr 0.00 in0.0 mm
01:35 AM 18.0°F-7.8°C 11.5°F-11.4°C 75% Calm Calm 4.5 mph7.2 kmh 25.28 in856.1 mb 0.00 in0.0 mm 0.00 in/hr0.0 mm/hr 0.00 in0.0 mm
01:40 AM 18.0°F-7.8°C 11.5°F-11.4°C 75% 2.0 mph 3.2 kmh 6.9 mph11.1 kmh 25.28 in856.1 mb 0.00 in0.0 mm 0.00 in/hr0.0 mm/hr 0.00 in0.0 mm
01:45 AM 18.9°F-7.3°C 12.2°F-11.0°C 75% 2.0 mph NE3.2 kmh NE 4.0 mph6.4 kmh 25.28 in856.1 mb 0.00 in0.0 mm 0.00 in/hr0.0 mm/hr 0.00 in0.0 mm
01:50 AM 17.1°F-8.3°C 10.2°F-12.1°C 74% Calm Calm 2.7 mph4.3 kmh 25.31 in857.1 mb 0.00 in0.0 mm 0.00 in/hr0.0 mm/hr 0.00 in0.0 mm
01:55 AM 15.8°F-9.0°C 8.8°F-12.9°C 73% Calm Calm -- 25.31 in857.1 mb 0.00 in0.0 mm 0.00 in/hr0.0 mm/hr 0.00 in0.0 mm
02:00 AM 15.3°F-9.3°C 8.2°F-13.2°C 73% Calm Calm 2.7 mph4.3 kmh 25.31 in857.1 mb 0.00 in0.0 mm 0.00 in/hr0.0 mm/hr 0.00 in0.0 mm
02:05 AM 14.7°F-9.6°C 8.2°F-13.2°C 75% 2.0 mph N3.2 kmh N 5.4 mph8.7 kmh 25.31 in857.1 mb 0.00 in0.0 mm 0.00 in/hr0.0 mm/hr 0.00 in0.0 mm
02:10 AM 14.9°F-9.5°C 9.0°F-12.8°C 77% 3.0 mph NW4.8 kmh NW 4.9 mph7.9 kmh 25.31 in857.1 mb 0.00 in0.0 mm 0.00 in/hr0.0 mm/hr 0.00 in0.0 mm
02:15 AM 15.1°F-9.4°C 9.1°F-12.7°C 77% 1.0 mph NW1.6 kmh NW 3.1 mph5.0 kmh 25.31 in857.1 mb 0.00 in0.0 mm 0.00 in/hr0.0 mm/hr 0.00 in0.0 mm
02:20 AM 15.6°F-9.1°C 10.0°F-12.2°C 78% Calm Calm 2.7 mph4.3 kmh 25.31 in857.1 mb 0.00 in0.0 mm 0.00 in/hr0.0 mm/hr 0.00 in0.0 mm
02:25 AM 15.3°F-9.3°C 9.9°F-12.3°C 79% Calm Calm 3.1 mph5.0 kmh 25.31 in857.1 mb 0.00 in0.0 mm 0.00 in/hr0.0 mm/hr 0.00 in0.0 mm
02:30 AM 14.5°F-9.7°C 9.3°F-12.6°C 79% Calm Calm 4.0 mph6.4 kmh 25.31 in857.1 mb 0.00 in0.0 mm 0.00 in/hr0.0 mm/hr 0.00 in0.0 mm
02:35 AM 14.7°F-9.6°C 9.5°F-12.5°C 79% Calm Calm -- 25.31 in857.1 mb 0.00 in0.0 mm 0.00 in/hr0.0 mm/hr 0.00 in0.0 mm
02:40 AM 14.5°F-9.7°C 9.3°F-12.6°C 79% Calm Calm -- 25.31 in857.1 mb 0.00 in0.0 mm 0.00 in/hr0.0 mm/hr 0.00 in0.0 mm
02:45 AM 14.5°F-9.7°C 9.5°F-12.5°C 80% Calm Calm -- 25.31 in857.1 mb 0.00 in0.0 mm 0.00 in/hr0.0 mm/hr 0.00 in0.0 mm
02:50 AM 14.9°F-9.5°C 9.9°F-12.3°C 80% Calm Calm -- 25.31 in857.1 mb 0.00 in0.0 mm 0.00 in/hr0.0 mm/hr 0.00 in0.0 mm
02:55 AM 14.7°F-9.6°C 10.0°F-12.2°C 81% Calm Calm -- 25.31 in857.1 mb 0.00 in0.0 mm 0.00 in/hr0.0 mm/hr 0.00 in0.0 mm
03:00 AM 14.7°F-9.6°C 10.0°F-12.2°C 81% Calm Calm -- 25.31 in857.1 mb 0.00 in0.0 mm 0.00 in/hr0.0 mm/hr 0.00 in0.0 mm
03:05 AM 14.2°F-9.9°C 9.5°F-12.5°C 81% Calm Calm -- 25.31 in857.1 mb 0.00 in0.0 mm 0.00 in/hr0.0 mm/hr 0.00 in0.0 mm
03:10 AM 14.2°F-9.9°C 9.5°F-12.5°C 81% Calm Calm -- 25.31 in857.1 mb 0.00 in0.0 mm 0.00 in/hr0.0 mm/hr 0.00 in0.0 mm
03:15 AM 14.7°F-9.6°C 10.2°F-12.1°C 82% Calm Calm -- 25.31 in857.1 mb 0.00 in0.0 mm 0.00 in/hr0.0 mm/hr 0.00 in0.0 mm
03:20 AM 14.9°F-9.5°C 10.4°F-12.0°C 82% Calm Calm -- 25.31 in857.1 mb 0.00 in0.0 mm 0.00 in/hr0.0 mm/hr 0.00 in0.0 mm
03:25 AM 15.3°F-9.3°C 10.8°F-11.8°C 82% Calm Calm -- 25.31 in857.1 mb 0.00 in0.0 mm 0.00 in/hr0.0 mm/hr 0.00 in0.0 mm
03:30 AM 15.3°F-9.3°C 10.8°F-11.8°C 82% Calm Calm -- 25.31 in857.1 mb 0.00 in0.0 mm 0.00 in/hr0.0 mm/hr 0.00 in0.0 mm
03:35 AM 15.3°F-9.3°C 10.8°F-11.8°C 82% Calm Calm -- 25.28 in856.1 mb 0.00 in0.0 mm 0.00 in/hr0.0 mm/hr 0.00 in0.0 mm
03:40 AM 15.1°F-9.4°C 10.6°F-11.9°C 82% Calm Calm -- 25.28 in856.1 mb 0.00 in0.0 mm 0.00 in/hr0.0 mm/hr 0.00 in0.0 mm
03:45 AM 14.5°F-9.7°C 10.0°F-12.2°C 82% Calm Calm -- 25.28 in856.1 mb 0.00 in0.0 mm 0.00 in/hr0.0 mm/hr 0.00 in0.0 mm
03:50 AM 14.2°F-9.9°C 9.7°F-12.4°C 82% Calm Calm -- 25.28 in856.1 mb 0.00 in0.0 mm 0.00 in/hr0.0 mm/hr 0.00 in0.0 mm
03:55 AM 14.5°F-9.7°C 10.0°F-12.2°C 82% Calm Calm -- 25.28 in856.1 mb 0.00 in0.0 mm 0.00 in/hr0.0 mm/hr 0.00 in0.0 mm
04:00 AM 14.9°F-9.5°C 10.4°F-12.0°C 82% Calm Calm -- 25.28 in856.1 mb 0.00 in0.0 mm 0.00 in/hr0.0 mm/hr 0.00 in0.0 mm
04:05 AM 15.4°F-9.2°C 10.9°F-11.7°C 82% Calm Calm -- 25.28 in856.1 mb 0.00 in0.0 mm 0.00 in/hr0.0 mm/hr 0.00 in0.0 mm
04:10 AM 16.0°F-8.9°C 11.7°F-11.3°C 83% Calm Calm -- 25.28 in856.1 mb 0.00 in0.0 mm 0.00 in/hr0.0 mm/hr 0.00 in0.0 mm
04:15 AM 15.8°F-9.0°C 11.7°F-11.3°C 83% Calm Calm -- 25.28 in856.1 mb 0.00 in0.0 mm 0.00 in/hr0.0 mm/hr 0.00 in0.0 mm
04:20 AM 15.4°F-9.2°C 10.9°F-11.7°C 82% Calm Calm -- 25.28 in856.1 mb 0.00 in0.0 mm 0.00 in/hr0.0 mm/hr 0.00 in0.0 mm
04:25 AM 15.1°F-9.4°C 10.6°F-11.9°C 82% Calm Calm -- 25.28 in856.1 mb 0.00 in0.0 mm 0.00 in/hr0.0 mm/hr 0.00 in0.0 mm
04:30 AM 15.4°F-9.2°C 11.3°F-11.5°C 83% Calm Calm 2.7 mph4.3 kmh 25.28 in856.1 mb 0.00 in0.0 mm 0.00 in/hr0.0 mm/hr 0.00 in0.0 mm
04:35 AM 15.3°F-9.3°C 10.8°F-11.8°C 82% Calm Calm -- 25.28 in856.1 mb 0.00 in0.0 mm 0.00 in/hr0.0 mm/hr 0.00 in0.0 mm
04:40 AM 14.7°F-9.6°C 10.2°F-12.1°C 82% Calm Calm -- 25.28 in856.1 mb 0.00 in0.0 mm 0.00 in/hr0.0 mm/hr 0.00 in0.0 mm
04:45 AM 14.5°F-9.7°C 10.0°F-12.2°C 82% Calm Calm 2.7 mph4.3 kmh 25.28 in856.1 mb 0.00 in0.0 mm 0.00 in/hr0.0 mm/hr 0.00 in0.0 mm
04:50 AM 14.2°F-9.9°C 9.7°F-12.4°C 82% Calm Calm 2.7 mph4.3 kmh 25.28 in856.1 mb 0.00 in0.0 mm 0.00 in/hr0.0 mm/hr 0.00 in0.0 mm
04:55 AM 13.6°F-10.2°C -5537.2°C - Calm Calm -- 25.28 in856.1 mb 0.00 in0.0 mm 0.00 in/hr0.0 mm/hr 0.00 in0.0 mm
05:00 AM 13.3°F-10.4°C -5537.2°C - Calm Calm -- 25.28 in856.1 mb 0.00 in0.0 mm 0.00 in/hr0.0 mm/hr 0.00 in0.0 mm
05:05 AM 13.1°F-10.5°C -5537.2°C - Calm Calm -- 25.31 in857.1 mb 0.00 in0.0 mm 0.00 in/hr0.0 mm/hr 0.00 in0.0 mm
05:10 AM 13.3°F-10.4°C -5537.2°C - Calm Calm -- 25.31 in857.1 mb 0.00 in0.0 mm 0.00 in/hr0.0 mm/hr 0.00 in0.0 mm
05:15 AM 13.6°F-10.2°C -5537.2°C - Calm Calm -- 25.31 in857.1 mb 0.00 in0.0 mm 0.00 in/hr0.0 mm/hr 0.00 in0.0 mm
05:20 AM 13.8°F-10.1°C -5537.2°C - Calm Calm -- 25.28 in856.1 mb 0.00 in0.0 mm 0.00 in/hr0.0 mm/hr 0.00 in0.0 mm
05:25 AM 14.4°F-9.8°C 10.2°F-12.1°C 83% Calm Calm -- 25.28 in856.1 mb 0.00 in0.0 mm 0.00 in/hr0.0 mm/hr 0.00 in0.0 mm
05:30 AM 14.7°F-9.6°C 10.8°F-11.8°C 84% Calm Calm -- 25.28 in856.1 mb 0.00 in0.0 mm 0.00 in/hr0.0 mm/hr 0.00 in0.0 mm
05:35 AM 13.6°F-10.2°C -5537.2°C - Calm Calm 2.7 mph4.3 kmh 25.28 in856.1 mb 0.00 in0.0 mm 0.00 in/hr0.0 mm/hr 0.00 in0.0 mm
05:40 AM 13.3°F-10.4°C -5537.2°C - Calm Calm 2.7 mph4.3 kmh 25.28 in856.1 mb 0.00 in0.0 mm 0.00 in/hr0.0 mm/hr 0.00 in0.0 mm
05:45 AM 13.3°F-10.4°C -5537.2°C - Calm Calm 2.7 mph4.3 kmh 25.28 in856.1 mb 0.00 in0.0 mm 0.00 in/hr0.0 mm/hr 0.00 in0.0 mm
05:50 AM 12.7°F-10.7°C -5537.2°C - Calm Calm 2.7 mph4.3 kmh 25.28 in856.1 mb 0.00 in0.0 mm 0.00 in/hr0.0 mm/hr 0.00 in0.0 mm
05:55 AM 13.5°F-10.3°C -5537.2°C - Calm Calm -- 25.28 in856.1 mb 0.00 in0.0 mm 0.00 in/hr0.0 mm/hr 0.00 in0.0 mm
06:00 AM 14.0°F-10.0°C 9.9°F-12.3°C 83% Calm Calm 2.7 mph4.3 kmh 25.28 in856.1 mb 0.00 in0.0 mm 0.00 in/hr0.0 mm/hr 0.00 in0.0 mm
06:05 AM 13.3°F-10.4°C -5537.2°C - Calm Calm 2.7 mph4.3 kmh 25.28 in856.1 mb 0.00 in0.0 mm 0.00 in/hr0.0 mm/hr 0.00 in0.0 mm
06:10 AM 13.1°F-10.5°C -5537.2°C - Calm Calm 2.7 mph4.3 kmh 25.28 in856.1 mb 0.00 in0.0 mm 0.00 in/hr0.0 mm/hr 0.00 in0.0 mm
06:15 AM 12.7°F-10.7°C -5537.2°C - Calm Calm 2.7 mph4.3 kmh 25.28 in856.1 mb 0.00 in0.0 mm 0.00 in/hr0.0 mm/hr 0.00 in0.0 mm
06:20 AM 12.7°F-10.7°C -5537.2°C - Calm Calm 2.7 mph4.3 kmh 25.28 in856.1 mb 0.00 in0.0 mm 0.00 in/hr0.0 mm/hr 0.00 in0.0 mm
06:25 AM 13.1°F-10.5°C -5537.2°C - Calm Calm -- 25.28 in856.1 mb 0.00 in0.0 mm 0.00 in/hr0.0 mm/hr 0.00 in0.0 mm
06:31 AM 12.7°F-10.7°C -5537.2°C - Calm Calm -- 25.28 in856.1 mb 0.00 in0.0 mm 0.00 in/hr0.0 mm/hr 0.00 in0.0 mm
06:36 AM 12.7°F-10.7°C -5537.2°C - Calm Calm 2.7 mph4.3 kmh 25.28 in856.1 mb 0.00 in0.0 mm 0.00 in/hr0.0 mm/hr 0.00 in0.0 mm
06:41 AM 13.1°F-10.5°C -5537.2°C - Calm Calm -- 25.28 in856.1 mb 0.00 in0.0 mm 0.00 in/hr0.0 mm/hr 0.00 in0.0 mm
06:46 AM 13.5°F-10.3°C -5537.2°C - Calm Calm -- 25.28 in856.1 mb 0.00 in0.0 mm 0.00 in/hr0.0 mm/hr 0.00 in0.0 mm
06:51 AM 13.5°F-10.3°C -5537.2°C - Calm Calm -- 25.28 in856.1 mb 0.00 in0.0 mm 0.00 in/hr0.0 mm/hr 0.00 in0.0 mm
06:56 AM 12.6°F-10.8°C -5537.2°C - Calm Calm -- 25.28 in856.1 mb 0.00 in0.0 mm 0.00 in/hr0.0 mm/hr 0.00 in0.0 mm
07:01 AM 11.8°F-11.2°C -5537.2°C - Calm Calm -- 25.28 in856.1 mb 0.00 in0.0 mm 0.00 in/hr0.0 mm/hr 0.00 in0.0 mm
07:06 AM 11.8°F-11.2°C -5537.2°C - Calm Calm -- 25.28 in856.1 mb 0.00 in0.0 mm 0.00 in/hr0.0 mm/hr 0.00 in0.0 mm
07:11 AM 12.4°F-10.9°C -5537.2°C - Calm Calm -- 25.28 in856.1 mb 0.00 in0.0 mm 0.00 in/hr0.0 mm/hr 0.00 in0.0 mm
07:16 AM 13.1°F-10.5°C -5537.2°C - Calm Calm -- 25.28 in856.1 mb 0.00 in0.0 mm 0.00 in/hr0.0 mm/hr 0.00 in0.0 mm
07:21 AM 13.5°F-10.3°C -5537.2°C - Calm Calm -- 25.28 in856.1 mb 0.00 in0.0 mm 0.00 in/hr0.0 mm/hr 0.00 in0.0 mm
07:26 AM 13.6°F-10.2°C -5537.2°C - Calm Calm -- 25.28 in856.1 mb 0.00 in0.0 mm 0.00 in/hr0.0 mm/hr 0.00 in0.0 mm
07:31 AM 13.8°F-10.1°C -5537.2°C - Calm Calm -- 25.28 in856.1 mb 0.00 in0.0 mm 0.00 in/hr0.0 mm/hr 0.00 in0.0 mm
07:36 AM 13.1°F-10.5°C -5537.2°C - Calm Calm -- 25.28 in856.1 mb 0.00 in0.0 mm 0.00 in/hr0.0 mm/hr 0.00 in0.0 mm
07:41 AM 13.1°F-10.5°C -5537.2°C - Calm Calm -- 25.28 in856.1 mb 0.00 in0.0 mm 0.00 in/hr0.0 mm/hr 0.00 in0.0 mm
07:46 AM 12.4°F-10.9°C -5537.2°C - Calm Calm -- 25.28 in856.1 mb 0.00 in0.0 mm 0.00 in/hr0.0 mm/hr 0.00 in0.0 mm
07:51 AM 12.7°F-10.7°C -5537.2°C - Calm Calm -- 25.28 in856.1 mb 0.00 in0.0 mm 0.00 in/hr0.0 mm/hr 0.00 in0.0 mm
07:56 AM 13.1°F-10.5°C -5537.2°C - Calm Calm -- 25.28 in856.1 mb 0.00 in0.0 mm 0.00 in/hr0.0 mm/hr 0.00 in0.0 mm
08:01 AM 13.1°F-10.5°C -5537.2°C - Calm Calm 2.7 mph4.3 kmh 25.28 in856.1 mb 0.00 in0.0 mm 0.00 in/hr0.0 mm/hr 0.00 in0.0 mm
08:06 AM 13.3°F-10.4°C -5537.2°C - 1.0 mph NNW1.6 kmh NNW 4.0 mph6.4 kmh 25.28 in856.1 mb 0.00 in0.0 mm 0.00 in/hr0.0 mm/hr 0.00 in0.0 mm
08:11 AM 13.6°F-10.2°C -5537.2°C - 1.0 mph NW1.6 kmh NW 3.6 mph5.8 kmh 25.28 in856.1 mb 0.00 in0.0 mm 0.00 in/hr0.0 mm/hr 0.00 in0.0 mm
08:16 AM 14.7°F-9.6°C 11.5°F-11.4°C 87% 1.0 mph NW1.6 kmh NW 3.6 mph5.8 kmh 25.28 in856.1 mb 0.00 in0.0 mm 0.00 in/hr0.0 mm/hr 0.00 in0.0 mm
08:21 AM 15.3°F-9.3°C 11.8°F-11.2°C 86% 1.0 mph NW1.6 kmh NW 5.4 mph8.7 kmh 25.31 in857.1 mb 0.00 in0.0 mm 0.00 in/hr0.0 mm/hr 0.00 in0.0 mm
08:26 AM 15.6°F-9.1°C 12.0°F-11.1°C 85% 2.0 mph N3.2 kmh N 4.9 mph7.9 kmh 25.31 in857.1 mb 0.00 in0.0 mm 0.00 in/hr0.0 mm/hr 0.00 in0.0 mm
08:31 AM 15.4°F-9.2°C 11.5°F-11.4°C 84% 3.0 mph NNE4.8 kmh NNE 3.6 mph5.8 kmh 25.31 in857.1 mb 0.00 in0.0 mm 0.00 in/hr0.0 mm/hr 0.00 in0.0 mm
08:36 AM 15.6°F-9.1°C 11.7°F-11.3°C 84% 2.0 mph NNE3.2 kmh NNE 4.5 mph7.2 kmh 25.31 in857.1 mb 0.00 in0.0 mm 0.00 in/hr0.0 mm/hr 0.00 in0.0 mm
08:41 AM 16.5°F-8.6°C 12.6°F-10.8°C 84% Calm Calm -- 25.31 in857.1 mb 0.00 in0.0 mm 0.00 in/hr0.0 mm/hr 0.00 in0.0 mm
08:46 AM 17.2°F-8.2°C 13.3°F-10.4°C 84% Calm Calm -- 25.31 in857.1 mb 0.00 in0.0 mm 0.00 in/hr0.0 mm/hr 0.00 in0.0 mm
08:51 AM 18.0°F-7.8°C 14.0°F-10.0°C 84% Calm Calm -- 25.31 in857.1 mb 0.00 in0.0 mm 0.00 in/hr0.0 mm/hr 0.00 in0.0 mm
08:56 AM 20.1°F-6.6°C 16.3°F-8.7°C 85% Calm Calm -- 25.31 in857.1 mb 0.00 in0.0 mm 0.00 in/hr0.0 mm/hr 0.00 in0.0 mm
09:01 AM 21.0°F-6.1°C 16.9°F-8.4°C 84% Calm Calm -- 25.31 in857.1 mb 0.00 in0.0 mm 0.00 in/hr0.0 mm/hr 0.00 in0.0 mm
09:06 AM 19.8°F-6.8°C 15.3°F-9.3°C 82% 1.0 mph NNE1.6 kmh NNE 4.5 mph7.2 kmh 25.31 in857.1 mb 0.00 in0.0 mm 0.00 in/hr0.0 mm/hr 0.00 in0.0 mm
09:11 AM 19.0°F-7.2°C 13.6°F-10.2°C 79% 1.0 mph NNE1.6 kmh NNE 4.5 mph7.2 kmh 25.31 in857.1 mb 0.00 in0.0 mm 0.00 in/hr0.0 mm/hr 0.00 in0.0 mm
09:16 AM 19.0°F-7.2°C 13.3°F-10.4°C 78% 2.0 mph NE3.2 kmh NE 5.4 mph8.7 kmh 25.31 in857.1 mb 0.00 in0.0 mm 0.00 in/hr0.0 mm/hr 0.00 in0.0 mm
09:21 AM 19.8°F-6.8°C 14.4°F-9.8°C 79% 3.0 mph ENE4.8 kmh ENE 4.9 mph7.9 kmh 25.28 in856.1 mb 0.00 in0.0 mm 0.00 in/hr0.0 mm/hr 0.00 in0.0 mm
09:26 AM 20.3°F-6.5°C 14.9°F-9.5°C 79% 3.0 mph ENE4.8 kmh ENE 5.4 mph8.7 kmh 25.28 in856.1 mb 0.00 in0.0 mm 0.00 in/hr0.0 mm/hr 0.00 in0.0 mm
09:31 AM 21.7°F-5.7°C 16.0°F-8.9°C 78% 2.0 mph ENE3.2 kmh ENE 4.5 mph7.2 kmh 25.28 in856.1 mb 0.00 in0.0 mm 0.00 in/hr0.0 mm/hr 0.00 in0.0 mm
09:36 AM 23.0°F-5.0°C 16.9°F-8.4°C 77% Calm Calm 3.1 mph5.0 kmh 25.31 in857.1 mb 0.00 in0.0 mm 0.00 in/hr0.0 mm/hr 0.00 in0.0 mm
09:41 AM 22.6°F-5.2°C 14.7°F-9.6°C 71% Calm Calm 3.6 mph5.8 kmh 25.31 in857.1 mb 0.00 in0.0 mm 0.00 in/hr0.0 mm/hr 0.00 in0.0 mm
09:46 AM 23.5°F-4.7°C 14.9°F-9.5°C 69% 1.0 mph ENE1.6 kmh ENE 3.1 mph5.0 kmh 25.31 in857.1 mb 0.00 in0.0 mm 0.00 in/hr0.0 mm/hr 0.00 in0.0 mm
09:51 AM 23.0°F-5.0°C 13.3°F-10.4°C 66% 2.0 mph ENE3.2 kmh ENE 5.4 mph8.7 kmh 25.31 in857.1 mb 0.00 in0.0 mm 0.00 in/hr0.0 mm/hr 0.00 in0.0 mm
09:56 AM 23.0°F-5.0°C 13.3°F-10.4°C 66% 3.0 mph NE4.8 kmh NE 5.4 mph8.7 kmh 25.31 in857.1 mb 0.00 in0.0 mm 0.00 in/hr0.0 mm/hr 0.00 in0.0 mm
10:01 AM 24.3°F-4.3°C 14.9°F-9.5°C 67% 1.0 mph N1.6 kmh N -- 25.31 in857.1 mb 0.00 in0.0 mm 0.00 in/hr0.0 mm/hr 0.00 in0.0 mm
10:06 AM 25.2°F-3.8°C 15.1°F-9.4°C 65% Calm Calm 3.1 mph5.0 kmh 25.28 in856.1 mb 0.00 in0.0 mm 0.00 in/hr0.0 mm/hr 0.00 in0.0 mm
10:11 AM 26.2°F-3.2°C 15.8°F-9.0°C 64% 1.0 mph N1.6 kmh N 3.1 mph5.0 kmh 25.28 in856.1 mb 0.00 in0.0 mm 0.00 in/hr0.0 mm/hr 0.00 in0.0 mm
10:16 AM 26.1°F-3.3°C 14.2°F-9.9°C 60% 1.0 mph N1.6 kmh N 3.6 mph5.8 kmh 25.28 in856.1 mb 0.00 in0.0 mm 0.00 in/hr0.0 mm/hr 0.00 in0.0 mm
10:21 AM 27.0°F-2.8°C 15.3°F-9.3°C 61% 1.0 mph N1.6 kmh N 4.5 mph7.2 kmh 25.28 in856.1 mb 0.00 in0.0 mm 0.00 in/hr0.0 mm/hr 0.00 in0.0 mm
10:26 AM 26.8°F-2.9°C 13.6°F-10.2°C 57% 2.0 mph N3.2 kmh N 4.0 mph6.4 kmh 25.28 in856.1 mb 0.00 in0.0 mm 0.00 in/hr0.0 mm/hr 0.00 in0.0 mm
10:31 AM 25.9°F-3.4°C 12.0°F-11.1°C 55% 2.0 mph N3.2 kmh N 4.9 mph7.9 kmh 25.28 in856.1 mb 0.00 in0.0 mm 0.00 in/hr0.0 mm/hr 0.00 in0.0 mm
10:36 AM 26.4°F-3.1°C 12.4°F-10.9°C 55% 3.0 mph N4.8 kmh N 5.4 mph8.7 kmh 25.28 in856.1 mb 0.00 in0.0 mm 0.00 in/hr0.0 mm/hr 0.00 in0.0 mm
10:41 AM 27.0°F-2.8°C 14.2°F-9.9°C 58% 2.0 mph N3.2 kmh N 4.0 mph6.4 kmh 25.28 in856.1 mb 0.00 in0.0 mm 0.00 in/hr0.0 mm/hr 0.00 in0.0 mm
10:46 AM 27.3°F-2.6°C 14.2°F-9.9°C 57% 3.0 mph NNE4.8 kmh NNE 4.9 mph7.9 kmh 25.28 in856.1 mb 0.00 in0.0 mm 0.00 in/hr0.0 mm/hr 0.00 in0.0 mm
10:51 AM 28.0°F-2.2°C 13.6°F-10.2°C 54% 3.0 mph NE4.8 kmh NE 5.8 mph9.3 kmh 25.28 in856.1 mb 0.00 in0.0 mm 0.00 in/hr0.0 mm/hr 0.00 in0.0 mm
10:56 AM 27.7°F-2.4°C 12.4°F-10.9°C 52% 2.0 mph NE3.2 kmh NE 5.8 mph9.3 kmh 25.28 in856.1 mb 0.00 in0.0 mm 0.00 in/hr0.0 mm/hr 0.00 in0.0 mm
11:01 AM 27.5°F-2.5°C 12.2°F-11.0°C 52% 3.0 mph NE4.8 kmh NE 5.8 mph9.3 kmh 25.28 in856.1 mb 0.00 in0.0 mm 0.00 in/hr0.0 mm/hr 0.00 in0.0 mm
11:06 AM 27.9°F-2.3°C 12.9°F-10.6°C 53% 3.0 mph NE4.8 kmh NE 5.4 mph8.7 kmh 25.28 in856.1 mb 0.00 in0.0 mm 0.00 in/hr0.0 mm/hr 0.00 in0.0 mm
11:11 AM 28.6°F-1.9°C 13.6°F-10.2°C 53% 2.0 mph NNE3.2 kmh NNE 4.5 mph7.2 kmh 25.28 in856.1 mb 0.00 in0.0 mm 0.00 in/hr0.0 mm/hr 0.00 in0.0 mm
11:16 AM 28.9°F-1.7°C 13.5°F-10.3°C 52% 1.0 mph NNE1.6 kmh NNE 3.6 mph5.8 kmh 25.28 in856.1 mb 0.00 in0.0 mm 0.00 in/hr0.0 mm/hr 0.00 in0.0 mm
11:21 AM 29.5°F-1.4°C 13.6°F-10.2°C 51% 1.0 mph NE1.6 kmh NE 6.3 mph10.1 kmh 25.25 in855.1 mb 0.00 in0.0 mm 0.00 in/hr0.0 mm/hr 0.00 in0.0 mm
11:26 AM 30.4°F-0.9°C 14.0°F-10.0°C 50% 3.0 mph ENE4.8 kmh ENE 6.7 mph10.8 kmh 25.25 in855.1 mb 0.00 in0.0 mm 0.00 in/hr0.0 mm/hr 0.00 in0.0 mm
11:31 AM 29.8°F-1.2°C 12.0°F-11.1°C 47% 3.0 mph ESE4.8 kmh ESE 5.4 mph8.7 kmh 25.25 in855.1 mb 0.00 in0.0 mm 0.00 in/hr0.0 mm/hr 0.00 in0.0 mm
11:36 AM 30.0°F-1.1°C 12.7°F-10.7°C 48% 3.0 mph SE4.8 kmh SE 5.4 mph8.7 kmh 25.28 in856.1 mb 0.00 in0.0 mm 0.00 in/hr0.0 mm/hr 0.00 in0.0 mm
11:41 AM 30.4°F-0.9°C 12.0°F-11.1°C 46% 3.0 mph SE4.8 kmh SE 6.7 mph10.8 kmh 25.28 in856.1 mb 0.00 in0.0 mm 0.00 in/hr0.0 mm/hr 0.00 in0.0 mm
11:46 AM 30.4°F-0.9°C 12.0°F-11.1°C 46% 3.0 mph SW4.8 kmh SW 5.8 mph9.3 kmh 25.25 in855.1 mb 0.00 in0.0 mm 0.00 in/hr0.0 mm/hr 0.00 in0.0 mm
11:51 AM 31.1°F-0.5°C 12.7°F-10.7°C 46% 2.0 mph WSW3.2 kmh WSW 4.5 mph7.2 kmh 25.25 in855.1 mb 0.00 in0.0 mm 0.00 in/hr0.0 mm/hr 0.00 in0.0 mm
11:56 AM 31.1°F-0.5°C 12.7°F-10.7°C 46% 2.0 mph W3.2 kmh W 4.9 mph7.9 kmh 25.25 in855.1 mb 0.00 in0.0 mm 0.00 in/hr0.0 mm/hr 0.00 in0.0 mm
12:01 PM 32.2°F0.1°C 13.8°F-10.1°C 46% 3.0 mph W4.8 kmh W 4.5 mph7.2 kmh 25.25 in855.1 mb 0.00 in0.0 mm 0.00 in/hr0.0 mm/hr 0.00 in0.0 mm
12:06 PM 31.6°F-0.2°C 12.2°F-11.0°C 44% 3.0 mph WSW4.8 kmh WSW 7.8 mph12.6 kmh 25.25 in855.1 mb 0.00 in0.0 mm 0.00 in/hr0.0 mm/hr 0.00 in0.0 mm
12:11 PM 31.5°F-0.3°C 11.7°F-11.3°C 43% 6.0 mph SE9.7 kmh SE 8.7 mph14.0 kmh 25.25 in855.1 mb 0.00 in0.0 mm 0.00 in/hr0.0 mm/hr 0.00 in0.0 mm
12:16 PM 31.5°F-0.3°C 11.7°F-11.3°C 43% 6.0 mph E9.7 kmh E 7.8 mph12.6 kmh 25.25 in855.1 mb 0.00 in0.0 mm 0.00 in/hr0.0 mm/hr 0.00 in0.0 mm
12:21 PM 31.8°F-0.1°C 11.8°F-11.2°C 43% 5.0 mph E8.0 kmh E 7.8 mph12.6 kmh 25.25 in855.1 mb 0.00 in0.0 mm 0.00 in/hr0.0 mm/hr 0.00 in0.0 mm
12:27 PM 32.2°F0.1°C 12.2°F-11.0°C 43% 5.0 mph E8.0 kmh E 7.8 mph12.6 kmh 25.25 in855.1 mb 0.00 in0.0 mm 0.00 in/hr0.0 mm/hr 0.00 in0.0 mm
12:32 PM 31.8°F-0.1°C 11.8°F-11.2°C 43% 5.0 mph E8.0 kmh E 8.3 mph13.4 kmh 25.22 in854.0 mb 0.00 in0.0 mm 0.00 in/hr0.0 mm/hr 0.00 in0.0 mm
12:37 PM 32.0°F0.0°C 11.5°F-11.4°C 42% 6.0 mph E9.7 kmh E 10.1 mph16.3 kmh 25.22 in854.0 mb 0.00 in0.0 mm 0.00 in/hr0.0 mm/hr 0.00 in0.0 mm
12:42 PM 32.5°F0.3°C 12.6°F-10.8°C 43% 6.0 mph E9.7 kmh E 8.7 mph14.0 kmh 25.22 in854.0 mb 0.00 in0.0 mm 0.00 in/hr0.0 mm/hr 0.00 in0.0 mm
12:47 PM 32.7°F0.4°C 12.2°F-11.0°C 42% 4.0 mph ENE6.4 kmh ENE 6.3 mph10.1 kmh 25.22 in854.0 mb 0.00 in0.0 mm 0.00 in/hr0.0 mm/hr 0.00 in0.0 mm
12:52 PM 32.7°F0.4°C 12.2°F-11.0°C 42% 4.0 mph NE6.4 kmh NE 9.6 mph15.4 kmh 25.22 in854.0 mb 0.00 in0.0 mm 0.00 in/hr0.0 mm/hr 0.00 in0.0 mm
12:57 PM 32.7°F0.4°C 12.2°F-11.0°C 42% 5.0 mph NE8.0 kmh NE 8.3 mph13.4 kmh 25.22 in854.0 mb 0.00 in0.0 mm 0.00 in/hr0.0 mm/hr 0.00 in0.0 mm
01:02 PM 32.7°F0.4°C 12.2°F-11.0°C 42% 4.0 mph NE6.4 kmh NE 6.3 mph10.1 kmh 25.22 in854.0 mb 0.00 in0.0 mm 0.00 in/hr0.0 mm/hr 0.00 in0.0 mm
01:07 PM 32.7°F0.4°C 12.2°F-11.0°C 42% 4.0 mph ENE6.4 kmh ENE 5.8 mph9.3 kmh 25.22 in854.0 mb 0.00 in0.0 mm 0.00 in/hr0.0 mm/hr 0.00 in0.0 mm
01:12 PM 33.1°F0.6°C 12.0°F-11.1°C 41% 4.0 mph E6.4 kmh E 6.3 mph10.1 kmh 25.22 in854.0 mb 0.00 in0.0 mm 0.00 in/hr0.0 mm/hr 0.00 in0.0 mm
01:17 PM 32.7°F0.4°C 11.7°F-11.3°C 41% 4.0 mph E6.4 kmh E 6.3 mph10.1 kmh 25.22 in854.0 mb 0.00 in0.0 mm 0.00 in/hr0.0 mm/hr 0.00 in0.0 mm
01:22 PM 32.9°F0.5°C 12.4°F-10.9°C 42% 4.0 mph E6.4 kmh E 6.7 mph10.8 kmh 25.22 in854.0 mb 0.00 in0.0 mm 0.00 in/hr0.0 mm/hr 0.00 in0.0 mm
01:27 PM 33.4°F0.8°C 12.4°F-10.9°C 41% 4.0 mph E6.4 kmh E 5.8 mph9.3 kmh 25.22 in854.0 mb 0.00 in0.0 mm 0.00 in/hr0.0 mm/hr 0.00 in0.0 mm
01:32 PM 34.2°F1.2°C 12.9°F-10.6°C 41% 4.0 mph E6.4 kmh E 7.4 mph11.9 kmh 25.22 in854.0 mb 0.00 in0.0 mm 0.00 in/hr0.0 mm/hr 0.00 in0.0 mm
01:37 PM 33.8°F1.0°C 12.0°F-11.1°C 40% 4.0 mph ESE6.4 kmh ESE 6.3 mph10.1 kmh 25.22 in854.0 mb 0.00 in0.0 mm 0.00 in/hr0.0 mm/hr 0.00 in0.0 mm
01:42 PM 34.3°F1.3°C 12.6°F-10.8°C 40% 2.0 mph SE3.2 kmh SE 4.5 mph7.2 kmh 25.22 in854.0 mb 0.00 in0.0 mm 0.00 in/hr0.0 mm/hr 0.00 in0.0 mm
01:47 PM 34.0°F1.1°C 12.2°F-11.0°C 40% 2.0 mph SE3.2 kmh SE 4.9 mph7.9 kmh 25.22 in854.0 mb 0.00 in0.0 mm 0.00 in/hr0.0 mm/hr 0.00 in0.0 mm
01:52 PM 34.5°F1.4°C 12.7°F-10.7°C 40% 2.0 mph SE3.2 kmh SE 4.5 mph7.2 kmh 25.22 in854.0 mb 0.00 in0.0 mm 0.00 in/hr0.0 mm/hr 0.00 in0.0 mm
01:57 PM 35.1°F1.7°C 12.6°F-10.8°C 39% 2.0 mph SE3.2 kmh SE 4.0 mph6.4 kmh 25.22 in854.0 mb 0.00 in0.0 mm 0.00 in/hr0.0 mm/hr 0.00 in0.0 mm
02:02 PM 35.6°F2.0°C 13.1°F-10.5°C 39% 1.0 mph SE1.6 kmh SE 3.6 mph5.8 kmh 25.22 in854.0 mb 0.00 in0.0 mm 0.00 in/hr0.0 mm/hr 0.00 in0.0 mm
02:07 PM 36.0°F2.2°C 13.5°F-10.3°C 39% Calm Calm 3.1 mph5.0 kmh 25.22 in854.0 mb 0.00 in0.0 mm 0.00 in/hr0.0 mm/hr 0.00 in0.0 mm
02:12 PM 36.1°F2.3°C 13.1°F-10.5°C 38% 1.0 mph S1.6 kmh S 5.4 mph8.7 kmh 25.22 in854.0 mb 0.00 in0.0 mm 0.00 in/hr0.0 mm/hr 0.00 in0.0 mm
02:17 PM 35.8°F2.1°C 12.0°F-11.1°C 37% 2.0 mph SW3.2 kmh SW 5.8 mph9.3 kmh 25.19 in853.0 mb 0.00 in0.0 mm 0.00 in/hr0.0 mm/hr 0.00 in0.0 mm
02:22 PM 35.6°F2.0°C 11.8°F-11.2°C 37% 4.0 mph SSE6.4 kmh SSE 8.3 mph13.4 kmh 25.19 in853.0 mb 0.00 in0.0 mm 0.00 in/hr0.0 mm/hr 0.00 in0.0 mm
02:27 PM 35.4°F1.9°C 12.4°F-10.9°C 38% 3.0 mph ESE4.8 kmh ESE 4.9 mph7.9 kmh 25.19 in853.0 mb 0.00 in0.0 mm 0.00 in/hr0.0 mm/hr 0.00 in0.0 mm
02:32 PM 35.4°F1.9°C 12.4°F-10.9°C 38% 2.0 mph ENE3.2 kmh ENE 4.9 mph7.9 kmh 25.22 in854.0 mb 0.00 in0.0 mm 0.00 in/hr0.0 mm/hr 0.00 in0.0 mm
02:37 PM 35.2°F1.8°C 12.7°F-10.7°C 39% 3.0 mph NE4.8 kmh NE 5.8 mph9.3 kmh 25.22 in854.0 mb 0.00 in0.0 mm 0.00 in/hr0.0 mm/hr 0.00 in0.0 mm
02:42 PM 35.2°F1.8°C 12.7°F-10.7°C 39% 4.0 mph NE6.4 kmh NE 5.4 mph8.7 kmh 25.22 in854.0 mb 0.00 in0.0 mm 0.00 in/hr0.0 mm/hr 0.00 in0.0 mm
02:52 PM 35.4°F1.9°C 12.9°F-10.6°C 39% 3.0 mph NNE4.8 kmh NNE 4.0 mph6.4 kmh 25.22 in854.0 mb 0.00 in0.0 mm 0.00 in/hr0.0 mm/hr 0.00 in0.0 mm
02:57 PM 35.4°F1.9°C 12.9°F-10.6°C 39% 2.0 mph NNE3.2 kmh NNE 4.5 mph7.2 kmh 25.22 in854.0 mb 0.00 in0.0 mm 0.00 in/hr0.0 mm/hr 0.00 in0.0 mm
03:02 PM 35.6°F2.0°C 13.1°F-10.5°C 39% 3.0 mph NNE4.8 kmh NNE 5.4 mph8.7 kmh 25.22 in854.0 mb 0.00 in0.0 mm 0.00 in/hr0.0 mm/hr 0.00 in0.0 mm
03:07 PM 35.6°F2.0°C 12.6°F-10.8°C 38% 3.0 mph NNE4.8 kmh NNE 5.4 mph8.7 kmh 25.22 in854.0 mb 0.00 in0.0 mm 0.00 in/hr0.0 mm/hr 0.00 in0.0 mm
03:12 PM 35.4°F1.9°C 12.9°F-10.6°C 39% 3.0 mph N4.8 kmh N 6.9 mph11.1 kmh 25.22 in854.0 mb 0.00 in0.0 mm 0.00 in/hr0.0 mm/hr 0.00 in0.0 mm
03:17 PM 35.4°F1.9°C 12.9°F-10.6°C 39% 3.0 mph N4.8 kmh N 4.9 mph7.9 kmh 25.22 in854.0 mb 0.00 in0.0 mm 0.00 in/hr0.0 mm/hr 0.00 in0.0 mm
03:22 PM 35.4°F1.9°C 12.9°F-10.6°C 39% 3.0 mph N4.8 kmh N 4.0 mph6.4 kmh 25.22 in854.0 mb 0.00 in0.0 mm 0.00 in/hr0.0 mm/hr 0.00 in0.0 mm
03:27 PM 35.4°F1.9°C 12.9°F-10.6°C 39% 2.0 mph N3.2 kmh N 3.6 mph5.8 kmh 25.22 in854.0 mb 0.00 in0.0 mm 0.00 in/hr0.0 mm/hr 0.00 in0.0 mm
03:32 PM 35.6°F2.0°C 13.1°F-10.5°C 39% 2.0 mph N3.2 kmh N 4.0 mph6.4 kmh 25.22 in854.0 mb 0.00 in0.0 mm 0.00 in/hr0.0 mm/hr 0.00 in0.0 mm
03:37 PM 35.8°F2.1°C 13.3°F-10.4°C 39% 2.0 mph N3.2 kmh N 3.6 mph5.8 kmh 25.22 in854.0 mb 0.00 in0.0 mm 0.00 in/hr0.0 mm/hr 0.00 in0.0 mm
03:42 PM 36.1°F2.3°C 13.1°F-10.5°C 38% 1.0 mph N1.6 kmh N 4.0 mph6.4 kmh 25.22 in854.0 mb 0.00 in0.0 mm 0.00 in/hr0.0 mm/hr 0.00 in0.0 mm
03:47 PM 35.8°F2.1°C 12.7°F-10.7°C 38% 1.0 mph N1.6 kmh N 3.6 mph5.8 kmh 25.22 in854.0 mb 0.00 in0.0 mm 0.00 in/hr0.0 mm/hr 0.00 in0.0 mm
03:52 PM 35.8°F2.1°C 13.3°F-10.4°C 39% 1.0 mph N1.6 kmh N 3.6 mph5.8 kmh 25.22 in854.0 mb 0.00 in0.0 mm 0.00 in/hr0.0 mm/hr 0.00 in0.0 mm
03:57 PM 35.8°F2.1°C 13.3°F-10.4°C 39% Calm Calm 2.7 mph4.3 kmh 25.22 in854.0 mb 0.00 in0.0 mm 0.00 in/hr0.0 mm/hr 0.00 in0.0 mm
04:02 PM 36.0°F2.2°C 13.5°F-10.3°C 39% 1.0 mph N1.6 kmh N 5.8 mph9.3 kmh 25.22 in854.0 mb 0.00 in0.0 mm 0.00 in/hr0.0 mm/hr 0.00 in0.0 mm
04:07 PM 35.8°F2.1°C 13.3°F-10.4°C 39% 2.0 mph SW3.2 kmh SW 5.4 mph8.7 kmh 25.22 in854.0 mb 0.00 in0.0 mm 0.00 in/hr0.0 mm/hr 0.00 in0.0 mm
04:12 PM 34.9°F1.6°C 12.4°F-10.9°C 39% 2.0 mph SSW3.2 kmh SSW 3.1 mph5.0 kmh 25.22 in854.0 mb 0.00 in0.0 mm 0.00 in/hr0.0 mm/hr 0.00 in0.0 mm
04:17 PM 34.2°F1.2°C 12.4°F-10.9°C 40% Calm Calm 3.6 mph5.8 kmh 25.22 in854.0 mb 0.00 in0.0 mm 0.00 in/hr0.0 mm/hr 0.00 in0.0 mm
04:22 PM 33.6°F0.9°C 12.4°F-10.9°C 41% Calm Calm 3.1 mph5.0 kmh 25.22 in854.0 mb 0.00 in0.0 mm 0.00 in/hr0.0 mm/hr 0.00 in0.0 mm
04:27 PM 33.4°F0.8°C 12.4°F-10.9°C 41% 1.0 mph SSW1.6 kmh SSW 4.9 mph7.9 kmh 25.22 in854.0 mb 0.00 in0.0 mm 0.00 in/hr0.0 mm/hr 0.00 in0.0 mm
04:32 PM 32.9°F0.5°C 12.4°F-10.9°C 42% 2.0 mph SW3.2 kmh SW 4.0 mph6.4 kmh 25.22 in854.0 mb 0.00 in0.0 mm 0.00 in/hr0.0 mm/hr 0.00 in0.0 mm
04:37 PM 32.2°F0.1°C 12.2°F-11.0°C 43% 1.0 mph SW1.6 kmh SW 3.1 mph5.0 kmh 25.22 in854.0 mb 0.00 in0.0 mm 0.00 in/hr0.0 mm/hr 0.00 in0.0 mm
04:42 PM 31.8°F-0.1°C 11.8°F-11.2°C 43% Calm Calm 3.1 mph5.0 kmh 25.22 in854.0 mb 0.00 in0.0 mm 0.00 in/hr0.0 mm/hr 0.00 in0.0 mm
04:47 PM 31.3°F-0.4°C 11.8°F-11.2°C 44% Calm Calm -- 25.22 in854.0 mb 0.00 in0.0 mm 0.00 in/hr0.0 mm/hr 0.00 in0.0 mm
04:52 PM 31.1°F-0.5°C 12.2°F-11.0°C 45% 1.0 mph SW1.6 kmh SW 4.0 mph6.4 kmh 25.22 in854.0 mb 0.00 in0.0 mm 0.00 in/hr0.0 mm/hr 0.00 in0.0 mm
04:57 PM 30.4°F-0.9°C 12.6°F-10.8°C 47% 3.0 mph SW4.8 kmh SW 4.9 mph7.9 kmh 25.22 in854.0 mb 0.00 in0.0 mm 0.00 in/hr0.0 mm/hr 0.00 in0.0 mm
05:02 PM 29.7°F-1.3°C 12.4°F-10.9°C 48% 2.0 mph SW3.2 kmh SW 3.6 mph5.8 kmh 25.25 in855.1 mb 0.00 in0.0 mm 0.00 in/hr0.0 mm/hr 0.00 in0.0 mm
05:07 PM 29.3°F-1.5°C 12.0°F-11.1°C 48% Calm Calm 2.7 mph4.3 kmh 25.25 in855.1 mb 0.00 in0.0 mm 0.00 in/hr0.0 mm/hr 0.00 in0.0 mm
05:12 PM 29.5°F-1.4°C 12.7°F-10.7°C 49% Calm Calm -- 25.25 in855.1 mb 0.00 in0.0 mm 0.00 in/hr0.0 mm/hr 0.00 in0.0 mm
05:17 PM 29.5°F-1.4°C 12.2°F-11.0°C 48% Calm Calm -- 25.25 in855.1 mb 0.00 in0.0 mm 0.00 in/hr0.0 mm/hr 0.00 in0.0 mm
05:22 PM 29.7°F-1.3°C 12.4°F-10.9°C 48% Calm Calm -- 25.25 in855.1 mb 0.00 in0.0 mm 0.00 in/hr0.0 mm/hr 0.00 in0.0 mm
05:27 PM 30.0°F-1.1°C 12.7°F-10.7°C 48% Calm Calm 3.6 mph5.8 kmh 25.25 in855.1 mb 0.00 in0.0 mm 0.00 in/hr0.0 mm/hr 0.00 in0.0 mm
05:32 PM 30.0°F-1.1°C 12.7°F-10.7°C 48% 2.0 mph SW3.2 kmh SW 4.5 mph7.2 kmh 25.25 in855.1 mb 0.00 in0.0 mm 0.00 in/hr0.0 mm/hr 0.00 in0.0 mm
05:37 PM 29.8°F-1.2°C 12.0°F-11.1°C 47% 2.0 mph SW3.2 kmh SW 3.1 mph5.0 kmh 25.25 in855.1 mb 0.00 in0.0 mm 0.00 in/hr0.0 mm/hr 0.00 in0.0 mm
05:42 PM 29.7°F-1.3°C 11.8°F-11.2°C 47% Calm Calm 3.6 mph5.8 kmh 25.25 in855.1 mb 0.00 in0.0 mm 0.00 in/hr0.0 mm/hr 0.00 in0.0 mm
05:47 PM 29.5°F-1.4°C 11.8°F-11.2°C 47% Calm Calm -- 25.25 in855.1 mb 0.00 in0.0 mm 0.00 in/hr0.0 mm/hr 0.00 in0.0 mm
05:52 PM 30.0°F-1.1°C 12.2°F-11.0°C 47% 1.0 mph SW1.6 kmh SW 4.0 mph6.4 kmh 25.25 in855.1 mb 0.00 in0.0 mm 0.00 in/hr0.0 mm/hr 0.00 in0.0 mm
05:57 PM 31.1°F-0.5°C 11.8°F-11.2°C 44% 2.0 mph SW3.2 kmh SW 4.5 mph7.2 kmh 25.25 in855.1 mb 0.00 in0.0 mm 0.00 in/hr0.0 mm/hr 0.00 in0.0 mm
06:03 PM 31.3°F-0.4°C 11.5°F-11.4°C 43% 2.0 mph SW3.2 kmh SW 3.6 mph5.8 kmh 25.25 in855.1 mb 0.00 in0.0 mm 0.00 in/hr0.0 mm/hr 0.00 in0.0 mm
06:08 PM 31.3°F-0.4°C 10.9°F-11.7°C 42% Calm Calm 3.1 mph5.0 kmh 25.25 in855.1 mb 0.00 in0.0 mm 0.00 in/hr0.0 mm/hr 0.00 in0.0 mm
06:13 PM 31.3°F-0.4°C 10.9°F-11.7°C 42% Calm Calm 3.1 mph5.0 kmh 25.25 in855.1 mb 0.00 in0.0 mm 0.00 in/hr0.0 mm/hr 0.00 in0.0 mm
06:18 PM 30.4°F-0.9°C 10.6°F-11.9°C 43% 1.0 mph SW1.6 kmh SW 3.6 mph5.8 kmh 25.25 in855.1 mb 0.00 in0.0 mm 0.00 in/hr0.0 mm/hr 0.00 in0.0 mm
06:23 PM 30.2°F-1.0°C 10.4°F-12.0°C 43% 1.0 mph SW1.6 kmh SW 3.1 mph5.0 kmh 25.25 in855.1 mb 0.00 in0.0 mm 0.00 in/hr0.0 mm/hr 0.00 in0.0 mm
06:28 PM 29.8°F-1.2°C 10.0°F-12.2°C 43% 1.0 mph SW1.6 kmh SW 3.6 mph5.8 kmh 25.25 in855.1 mb 0.00 in0.0 mm 0.00 in/hr0.0 mm/hr 0.00 in0.0 mm
06:33 PM 29.5°F-1.4°C 10.2°F-12.1°C 44% 2.0 mph SW3.2 kmh SW 3.1 mph5.0 kmh 25.25 in855.1 mb 0.00 in0.0 mm 0.00 in/hr0.0 mm/hr 0.00 in0.0 mm
06:38 PM 29.8°F-1.2°C 10.6°F-11.9°C 44% 2.0 mph SW3.2 kmh SW 4.5 mph7.2 kmh 25.25 in855.1 mb 0.00 in0.0 mm 0.00 in/hr0.0 mm/hr 0.00 in0.0 mm
06:43 PM 29.3°F-1.5°C 10.0°F-12.2°C 44% 1.0 mph SW1.6 kmh SW 3.6 mph5.8 kmh 25.25 in855.1 mb 0.00 in0.0 mm 0.00 in/hr0.0 mm/hr 0.00 in0.0 mm
06:48 PM 29.3°F-1.5°C 10.0°F-12.2°C 44% Calm Calm 3.6 mph5.8 kmh 25.28 in856.1 mb 0.00 in0.0 mm 0.00 in/hr0.0 mm/hr 0.00 in0.0 mm
06:53 PM 30.2°F-1.0°C 11.5°F-11.4°C 45% 1.0 mph SW1.6 kmh SW 3.1 mph5.0 kmh 25.28 in856.1 mb 0.00 in0.0 mm 0.00 in/hr0.0 mm/hr 0.00 in0.0 mm
06:58 PM 30.7°F-0.7°C 11.5°F-11.4°C 44% 1.0 mph SW1.6 kmh SW 4.0 mph6.4 kmh 25.28 in856.1 mb 0.00 in0.0 mm 0.00 in/hr0.0 mm/hr 0.00 in0.0 mm
07:03 PM 30.9°F-0.6°C 11.1°F-11.6°C 43% 1.0 mph SE1.6 kmh SE 4.9 mph7.9 kmh 25.28 in856.1 mb 0.00 in0.0 mm 0.00 in/hr0.0 mm/hr 0.00 in0.0 mm
07:08 PM 31.1°F-0.5°C 11.3°F-11.5°C 43% 2.0 mph E3.2 kmh E 4.9 mph7.9 kmh 25.28 in856.1 mb 0.00 in0.0 mm 0.00 in/hr0.0 mm/hr 0.00 in0.0 mm
07:13 PM 31.3°F-0.4°C 11.5°F-11.4°C 43% 3.0 mph ESE4.8 kmh ESE 5.4 mph8.7 kmh 25.28 in856.1 mb 0.00 in0.0 mm 0.00 in/hr0.0 mm/hr 0.00 in0.0 mm
07:18 PM 30.4°F-0.9°C 10.6°F-11.9°C 43% 4.0 mph ESE6.4 kmh ESE 6.3 mph10.1 kmh 25.28 in856.1 mb 0.00 in0.0 mm 0.00 in/hr0.0 mm/hr 0.00 in0.0 mm
07:23 PM 29.3°F-1.5°C 9.7°F-12.4°C 43% 5.0 mph ESE8.0 kmh ESE 5.8 mph9.3 kmh 25.28 in856.1 mb 0.00 in0.0 mm 0.00 in/hr0.0 mm/hr 0.00 in0.0 mm
07:28 PM 29.3°F-1.5°C 10.0°F-12.2°C 44% 4.0 mph ESE6.4 kmh ESE 5.4 mph8.7 kmh 25.28 in856.1 mb 0.00 in0.0 mm 0.00 in/hr0.0 mm/hr 0.00 in0.0 mm
07:33 PM 28.6°F-1.9°C 10.0°F-12.2°C 45% 2.0 mph ESE3.2 kmh ESE 4.0 mph6.4 kmh 25.28 in856.1 mb 0.00 in0.0 mm 0.00 in/hr0.0 mm/hr 0.00 in0.0 mm
07:38 PM 28.8°F-1.8°C 11.1°F-11.6°C 47% 3.0 mph SE4.8 kmh SE 6.3 mph10.1 kmh 25.28 in856.1 mb 0.00 in0.0 mm 0.00 in/hr0.0 mm/hr 0.00 in0.0 mm
07:43 PM 28.9°F-1.7°C 11.3°F-11.5°C 47% 4.0 mph ESE6.4 kmh ESE 4.5 mph7.2 kmh 25.28 in856.1 mb 0.00 in0.0 mm 0.00 in/hr0.0 mm/hr 0.00 in0.0 mm
07:48 PM 28.4°F-2.0°C 10.8°F-11.8°C 47% 3.0 mph E4.8 kmh E 4.0 mph6.4 kmh 25.28 in856.1 mb 0.00 in0.0 mm 0.00 in/hr0.0 mm/hr 0.00 in0.0 mm
07:53 PM 27.3°F-2.6°C 9.9°F-12.3°C 47% 1.0 mph ESE1.6 kmh ESE 2.7 mph4.3 kmh 25.28 in856.1 mb 0.00 in0.0 mm 0.00 in/hr0.0 mm/hr 0.00 in0.0 mm
07:58 PM 27.1°F-2.7°C 10.0°F-12.2°C 48% Calm Calm 3.6 mph5.8 kmh 25.28 in856.1 mb 0.00 in0.0 mm 0.00 in/hr0.0 mm/hr 0.00 in0.0 mm
08:03 PM 26.6°F-3.0°C 10.6°F-11.9°C 50% 1.0 mph ESE1.6 kmh ESE 3.6 mph5.8 kmh 25.28 in856.1 mb 0.00 in0.0 mm 0.00 in/hr0.0 mm/hr 0.00 in0.0 mm
08:08 PM 26.8°F-2.9°C 11.1°F-11.6°C 51% Calm Calm 2.7 mph4.3 kmh 25.28 in856.1 mb 0.00 in0.0 mm 0.00 in/hr0.0 mm/hr 0.00 in0.0 mm
08:13 PM 26.8°F-2.9°C 11.1°F-11.6°C 51% 1.0 mph ESE1.6 kmh ESE 4.0 mph6.4 kmh 25.28 in856.1 mb 0.00 in0.0 mm 0.00 in/hr0.0 mm/hr 0.00 in0.0 mm
08:18 PM 27.1°F-2.7°C 11.5°F-11.4°C 51% 2.0 mph ESE3.2 kmh ESE 4.0 mph6.4 kmh 25.28 in856.1 mb 0.00 in0.0 mm 0.00 in/hr0.0 mm/hr 0.00 in0.0 mm
08:23 PM 27.1°F-2.7°C 11.5°F-11.4°C 51% 1.0 mph E1.6 kmh E 2.7 mph4.3 kmh 25.28 in856.1 mb 0.00 in0.0 mm 0.00 in/hr0.0 mm/hr 0.00 in0.0 mm
08:28 PM 26.4°F-3.1°C 10.8°F-11.8°C 51% 1.0 mph E1.6 kmh E 3.6 mph5.8 kmh 25.28 in856.1 mb 0.00 in0.0 mm 0.00 in/hr0.0 mm/hr 0.00 in0.0 mm
08:33 PM 25.5°F-3.6°C 9.9°F-12.3°C 51% 2.0 mph E3.2 kmh E 3.6 mph5.8 kmh 25.28 in856.1 mb 0.00 in0.0 mm 0.00 in/hr0.0 mm/hr 0.00 in0.0 mm
08:38 PM 26.2°F-3.2°C 11.1°F-11.6°C 52% 2.0 mph E3.2 kmh E 4.0 mph6.4 kmh 25.28 in856.1 mb 0.00 in0.0 mm 0.00 in/hr0.0 mm/hr 0.00 in0.0 mm
08:43 PM 25.9°F-3.4°C 10.8°F-11.8°C 52% 2.0 mph E3.2 kmh E 4.0 mph6.4 kmh 25.28 in856.1 mb 0.00 in0.0 mm 0.00 in/hr0.0 mm/hr 0.00 in0.0 mm
08:48 PM 25.7°F-3.5°C 10.9°F-11.7°C 53% 1.0 mph E1.6 kmh E 3.1 mph5.0 kmh 25.31 in857.1 mb 0.00 in0.0 mm 0.00 in/hr0.0 mm/hr 0.00 in0.0 mm
08:53 PM 26.2°F-3.2°C 11.5°F-11.4°C 53% Calm Calm 2.7 mph4.3 kmh 25.31 in857.1 mb 0.00 in0.0 mm 0.00 in/hr0.0 mm/hr 0.00 in0.0 mm
08:58 PM 25.9°F-3.4°C 11.1°F-11.6°C 53% Calm Calm -- 25.31 in857.1 mb 0.00 in0.0 mm 0.00 in/hr0.0 mm/hr 0.00 in0.0 mm
09:03 PM 25.7°F-3.5°C 11.3°F-11.5°C 54% Calm Calm 3.1 mph5.0 kmh 25.31 in857.1 mb 0.00 in0.0 mm 0.00 in/hr0.0 mm/hr 0.00 in0.0 mm
09:08 PM 25.2°F-3.8°C 10.9°F-11.7°C 54% Calm Calm 3.1 mph5.0 kmh 25.31 in857.1 mb 0.00 in0.0 mm 0.00 in/hr0.0 mm/hr 0.00 in0.0 mm
09:13 PM 25.2°F-3.8°C 10.9°F-11.7°C 54% Calm Calm -- 25.31 in857.1 mb 0.00 in0.0 mm 0.00 in/hr0.0 mm/hr 0.00 in0.0 mm
09:18 PM 25.5°F-3.6°C 11.3°F-11.5°C 54% Calm Calm -- 25.31 in857.1 mb 0.00 in0.0 mm 0.00 in/hr0.0 mm/hr 0.00 in0.0 mm
09:23 PM 25.9°F-3.4°C 11.5°F-11.4°C 54% Calm Calm -- 25.31 in857.1 mb 0.00 in0.0 mm 0.00 in/hr0.0 mm/hr 0.00 in0.0 mm
09:28 PM 26.6°F-3.0°C 12.2°F-11.0°C 54% Calm Calm 3.1 mph5.0 kmh 25.31 in857.1 mb 0.00 in0.0 mm 0.00 in/hr0.0 mm/hr 0.00 in0.0 mm
09:33 PM 25.9°F-3.4°C 11.1°F-11.6°C 53% Calm Calm -- 25.34 in858.1 mb 0.00 in0.0 mm 0.00 in/hr0.0 mm/hr 0.00 in0.0 mm
09:38 PM 26.2°F-3.2°C 11.5°F-11.4°C 53% Calm Calm -- 25.34 in858.1 mb 0.00 in0.0 mm 0.00 in/hr0.0 mm/hr 0.00 in0.0 mm
09:43 PM 26.4°F-3.1°C 11.7°F-11.3°C 53% Calm Calm -- 25.34 in858.1 mb 0.00 in0.0 mm 0.00 in/hr0.0 mm/hr 0.00 in0.0 mm
09:48 PM 26.2°F-3.2°C 11.1°F-11.6°C 52% Calm Calm -- 25.34 in858.1 mb 0.00 in0.0 mm 0.00 in/hr0.0 mm/hr 0.00 in0.0 mm
09:53 PM 26.2°F-3.2°C 11.1°F-11.6°C 52% Calm Calm -- 25.34 in858.1 mb 0.00 in0.0 mm 0.00 in/hr0.0 mm/hr 0.00 in0.0 mm
09:58 PM 26.6°F-3.0°C 11.3°F-11.5°C 52% 1.0 mph E1.6 kmh E 3.6 mph5.8 kmh 25.34 in858.1 mb 0.00 in0.0 mm 0.00 in/hr0.0 mm/hr 0.00 in0.0 mm
10:03 PM 27.3°F-2.6°C 12.0°F-11.1°C 52% 1.0 mph E1.6 kmh E 3.1 mph5.0 kmh 25.34 in858.1 mb 0.00 in0.0 mm 0.00 in/hr0.0 mm/hr 0.00 in0.0 mm
10:08 PM 27.1°F-2.7°C 11.5°F-11.4°C 51% Calm Calm 3.1 mph5.0 kmh 25.34 in858.1 mb 0.00 in0.0 mm 0.00 in/hr0.0 mm/hr 0.00 in0.0 mm
10:13 PM 26.4°F-3.1°C 10.4°F-12.0°C 50% Calm Calm 4.0 mph6.4 kmh 25.34 in858.1 mb 0.00 in0.0 mm 0.00 in/hr0.0 mm/hr 0.00 in0.0 mm
10:18 PM 25.7°F-3.5°C 9.7°F-12.4°C 50% 1.0 mph ESE1.6 kmh ESE 3.6 mph5.8 kmh 25.34 in858.1 mb 0.00 in0.0 mm 0.00 in/hr0.0 mm/hr 0.00 in0.0 mm
10:23 PM 25.9°F-3.4°C 10.2°F-12.1°C 51% 1.0 mph ESE1.6 kmh ESE 3.6 mph5.8 kmh 25.34 in858.1 mb 0.00 in0.0 mm 0.00 in/hr0.0 mm/hr 0.00 in0.0 mm
10:28 PM 26.2°F-3.2°C 10.6°F-11.9°C 51% Calm Calm -- 25.34 in858.1 mb 0.00 in0.0 mm 0.00 in/hr0.0 mm/hr 0.00 in0.0 mm
10:38 PM 25.7°F-3.5°C 10.0°F-12.2°C 51% 2.0 mph SE3.2 kmh SE 5.4 mph8.7 kmh 25.34 in858.1 mb 0.00 in0.0 mm 0.00 in/hr0.0 mm/hr 0.00 in0.0 mm
10:43 PM 25.2°F-3.8°C 10.0°F-12.2°C 52% 4.0 mph SE6.4 kmh SE 6.9 mph11.1 kmh 25.34 in858.1 mb 0.00 in0.0 mm 0.00 in/hr0.0 mm/hr 0.00 in0.0 mm
10:48 PM 25.5°F-3.6°C 10.8°F-11.8°C 53% 5.0 mph ESE8.0 kmh ESE 6.9 mph11.1 kmh 25.34 in858.1 mb 0.00 in0.0 mm 0.00 in/hr0.0 mm/hr 0.00 in0.0 mm
10:53 PM 26.4°F-3.1°C 11.1°F-11.6°C 52% 5.0 mph E8.0 kmh E 6.3 mph10.1 kmh 25.34 in858.1 mb 0.00 in0.0 mm 0.00 in/hr0.0 mm/hr 0.00 in0.0 mm
10:58 PM 24.4°F-4.2°C 9.0°F-12.8°C 51% 4.0 mph SE6.4 kmh SE 4.5 mph7.2 kmh 25.34 in858.1 mb 0.00 in0.0 mm 0.00 in/hr0.0 mm/hr 0.00 in0.0 mm
11:03 PM 22.8°F-5.1°C 8.2°F-13.2°C 53% 2.0 mph SSW3.2 kmh SSW 3.6 mph5.8 kmh 25.34 in858.1 mb 0.00 in0.0 mm 0.00 in/hr0.0 mm/hr 0.00 in0.0 mm
11:08 PM 22.8°F-5.1°C 8.8°F-12.9°C 54% 1.0 mph SSW1.6 kmh SSW 2.7 mph4.3 kmh 25.34 in858.1 mb 0.00 in0.0 mm 0.00 in/hr0.0 mm/hr 0.00 in0.0 mm
11:13 PM 22.6°F-5.2°C 9.0°F-12.8°C 55% Calm Calm -- 25.34 in858.1 mb 0.00 in0.0 mm 0.00 in/hr0.0 mm/hr 0.00 in0.0 mm
11:18 PM 22.6°F-5.2°C 9.7°F-12.4°C 57% Calm Calm -- 25.31 in857.1 mb 0.00 in0.0 mm 0.00 in/hr0.0 mm/hr 0.00 in0.0 mm
11:23 PM 23.0°F-5.0°C 10.0°F-12.2°C 57% Calm Calm 3.6 mph5.8 kmh 25.31 in857.1 mb 0.00 in0.0 mm 0.00 in/hr0.0 mm/hr 0.00 in0.0 mm
11:28 PM 22.6°F-5.2°C 9.7°F-12.4°C 57% 1.0 mph SSW1.6 kmh SSW 3.6 mph5.8 kmh 25.31 in857.1 mb 0.00 in0.0 mm 0.00 in/hr0.0 mm/hr 0.00 in0.0 mm
11:33 PM 22.5°F-5.3°C 9.5°F-12.5°C 57% 1.0 mph SSW1.6 kmh SSW 3.6 mph5.8 kmh 25.31 in857.1 mb 0.00 in0.0 mm 0.00 in/hr0.0 mm/hr 0.00 in0.0 mm
11:38 PM 23.0°F-5.0°C 10.4°F-12.0°C 58% 1.0 mph SSW1.6 kmh SSW 4.0 mph6.4 kmh 25.31 in857.1 mb 0.00 in0.0 mm 0.00 in/hr0.0 mm/hr 0.00 in0.0 mm
11:43 PM 23.5°F-4.7°C 10.6°F-11.9°C 57% 2.0 mph SW3.2 kmh SW 4.0 mph6.4 kmh 25.31 in857.1 mb 0.00 in0.0 mm 0.00 in/hr0.0 mm/hr 0.00 in0.0 mm
11:48 PM 22.8°F-5.1°C 9.5°F-12.5°C 56% 1.0 mph SW1.6 kmh SW 3.6 mph5.8 kmh 25.34 in858.1 mb 0.00 in0.0 mm 0.00 in/hr0.0 mm/hr 0.00 in0.0 mm
11:53 PM 22.1°F-5.5°C 8.8°F-12.9°C 56% 1.0 mph SW1.6 kmh SW 3.6 mph5.8 kmh 25.34 in858.1 mb 0.00 in0.0 mm 0.00 in/hr0.0 mm/hr 0.00 in0.0 mm
11:58 PM 21.4°F-5.9°C 8.6°F-13.0°C 57% 2.0 mph SW3.2 kmh SW 4.5 mph7.2 kmh 25.34 in858.1 mb 0.00 in0.0 mm 0.00 in/hr0.0 mm/hr 0.00 in0.0 mm